Time,TemperatureF,DewpointF,PressureIn,WindDirection,WindDirectionDegrees,WindSpeedMPH,WindSpeedGustMPH,Humidity,HourlyPrecipIn,Conditions,Clouds,dailyrainin,SolarRadiationWatts/m^2,SoftwareType,DateUTC
2016-07-26 00:00:00,75.4,67.3,29.96,ENE,62,0.0,0.0,76,0.00,,,0.00,0,Wunderground v.1.15,2016-07-25 22:00:00,
2016-07-26 00:10:00,75.7,67.2,29.97,ENE,62,0.0,0.0,75,0.00,,,0.00,0,Wunderground v.1.15,2016-07-25 22:10:00,
2016-07-26 00:15:00,75.7,67.2,29.97,ENE,62,0.0,0.0,75,0.00,,,0.00,0,Wunderground v.1.15,2016-07-25 22:15:00,
2016-07-26 00:20:00,75.8,66.9,29.97,ENE,71,0.0,0.0,74,0.00,,,0.00,0,Wunderground v.1.15,2016-07-25 22:20:00,
2016-07-26 00:25:00,75.9,67.0,29.97,ENE,70,0.0,0.0,74,0.00,,,0.00,0,Wunderground v.1.15,2016-07-25 22:25:00,
2016-07-26 00:35:00,76.2,67.3,29.97,SE,131,0.0,0.0,74,0.00,,,0.00,0,Wunderground v.1.15,2016-07-25 22:35:00,
2016-07-26 00:45:00,74.9,66.8,29.98,SE,134,0.0,0.0,76,0.00,,,0.00,0,Wunderground v.1.15,2016-07-25 22:45:00,
2016-07-26 00:50:00,74.3,66.2,29.98,SSE,154,0.0,0.0,76,0.00,,,0.00,0,Wunderground v.1.15,2016-07-25 22:50:00,
2016-07-26 01:00:00,73.7,64.9,29.99,ENE,58,0.0,0.0,74,0.00,,,0.00,0,Wunderground v.1.15,2016-07-25 23:00:00,
2016-07-26 01:05:00,73.8,63.8,29.98,SSE,151,0.0,0.0,71,0.00,,,0.00,0,Wunderground v.1.15,2016-07-25 23:05:00,
2016-07-26 01:10:00,73.7,63.3,29.98,ENE,78,0.0,8.0,70,0.00,,,0.00,0,Wunderground v.1.15,2016-07-25 23:10:00,
2016-07-26 01:15:00,73.4,63.0,29.98,SE,136,0.0,8.0,70,0.00,,,0.00,0,Wunderground v.1.15,2016-07-25 23:15:00,
2016-07-26 01:25:00,72.8,62.4,29.98,South,175,1.0,7.0,70,0.00,,,0.00,0,Wunderground v.1.15,2016-07-25 23:25:00,
2016-07-26 01:35:00,72.1,62.2,29.98,ESE,109,0.0,2.0,71,0.00,,,0.00,0,Wunderground v.1.15,2016-07-25 23:35:00,
2016-07-26 01:45:00,71.9,62.0,29.98,East,95,0.0,0.0,71,0.00,,,0.00,0,Wunderground v.1.15,2016-07-25 23:45:00,
2016-07-26 01:50:00,71.8,61.9,29.98,ESE,116,0.0,0.0,71,0.00,,,0.00,0,Wunderground v.1.15,2016-07-25 23:50:00,
2016-07-26 02:00:00,71.5,62.4,29.98,East,81,1.0,1.0,73,0.00,,,0.00,0,Wunderground v.1.15,2016-07-26 00:00:00,
2016-07-26 02:05:00,71.3,61.8,29.98,East,96,1.0,1.0,72,0.00,,,0.00,0,Wunderground v.1.15,2016-07-26 00:05:00,
2016-07-26 02:10:00,71.2,62.1,29.98,ENE,72,0.0,0.0,73,0.00,,,0.00,0,Wunderground v.1.15,2016-07-26 00:10:00,
2016-07-26 02:15:00,71.0,61.9,29.98,ENE,75,0.0,0.0,73,0.00,,,0.00,0,Wunderground v.1.15,2016-07-26 00:15:00,
2016-07-26 02:20:00,71.1,62.0,29.98,East,89,0.0,0.0,73,0.00,,,0.00,0,Wunderground v.1.15,2016-07-26 00:20:00,
2016-07-26 02:25:00,71.4,62.3,29.99,ENE,74,2.0,8.0,73,0.00,,,0.00,0,Wunderground v.1.15,2016-07-26 00:25:00,
2016-07-26 02:30:00,71.5,63.2,29.99,ENE,62,4.0,4.0,75,0.00,,,0.00,0,Wunderground v.1.15,2016-07-26 00:30:00,
2016-07-26 02:40:00,71.4,63.1,29.99,ENE,75,0.0,0.0,75,0.00,,,0.00,0,Wunderground v.1.15,2016-07-26 00:40:00,
2016-07-26 02:45:00,71.6,62.9,29.98,NE,36,0.0,0.0,74,0.00,,,0.00,0,Wunderground v.1.15,2016-07-26 00:45:00,
2016-07-26 02:55:00,72.1,64.5,29.99,NW,321,1.0,4.0,77,0.76,,,0.02,0,Wunderground v.1.15,2016-07-26 00:55:00,
2016-07-26 03:05:00,70.7,64.9,30.00,WNW,282,0.0,1.0,82,0.16,,,0.06,0,Wunderground v.1.15,2016-07-26 01:05:00,
2016-07-26 03:10:00,69.7,64.6,30.00,WNW,284,0.0,0.0,84,0.09,,,0.06,0,Wunderground v.1.15,2016-07-26 01:10:00,
2016-07-26 03:15:00,69.1,64.4,30.00,West,259,0.0,0.0,85,0.05,,,0.06,0,Wunderground v.1.15,2016-07-26 01:15:00,
2016-07-26 03:20:00,68.9,64.2,29.99,SW,221,0.0,0.0,85,0.04,,,0.06,0,Wunderground v.1.15,2016-07-26 01:20:00,
2016-07-26 03:25:00,68.7,64.7,30.00,NNW,332,0.0,0.0,87,0.00,,,0.06,0,Wunderground v.1.15,2016-07-26 01:25:00,
2016-07-26 03:30:00,68.5,64.8,30.00,NNW,332,0.0,0.0,88,0.00,,,0.06,0,Wunderground v.1.15,2016-07-26 01:30:00,
2016-07-26 03:35:00,68.3,64.9,29.99,NNW,332,0.0,0.0,89,0.00,,,0.07,0,Wunderground v.1.15,2016-07-26 01:35:00,
2016-07-26 03:45:00,68.0,65.0,29.99,NNW,331,0.0,0.0,90,0.00,,,0.07,0,Wunderground v.1.15,2016-07-26 01:45:00,
2016-07-26 03:50:00,67.9,64.9,29.99,NNW,331,0.0,0.0,90,0.00,,,0.07,0,Wunderground v.1.15,2016-07-26 01:50:00,
2016-07-26 03:55:00,67.9,64.9,29.98,NNW,331,0.0,0.0,90,0.00,,,0.07,0,Wunderground v.1.15,2016-07-26 01:55:00,
2016-07-26 04:05:00,67.9,65.2,29.98,NNW,331,0.0,0.0,91,0.00,,,0.07,0,Wunderground v.1.15,2016-07-26 02:05:00,
2016-07-26 04:10:00,67.8,65.1,29.98,NNW,331,0.0,0.0,91,0.00,,,0.07,0,Wunderground v.1.15,2016-07-26 02:10:00,
2016-07-26 04:15:00,67.7,64.7,29.98,NNW,331,0.0,0.0,90,0.00,,,0.08,0,Wunderground v.1.15,2016-07-26 02:15:00,
2016-07-26 04:20:00,67.7,64.7,29.98,NNW,331,0.0,0.0,90,0.08,,,0.09,0,Wunderground v.1.15,2016-07-26 02:20:00,
2016-07-26 04:25:00,67.6,64.6,29.98,NE,35,0.0,0.0,90,0.08,,,0.09,0,Wunderground v.1.15,2016-07-26 02:25:00,
2016-07-26 04:30:00,67.6,64.9,29.98,NNW,332,0.0,0.0,91,0.06,,,0.09,0,Wunderground v.1.15,2016-07-26 02:30:00,
2016-07-26 04:35:00,67.5,64.8,29.98,NNW,337,0.0,0.0,91,0.10,,,0.10,0,Wunderground v.1.15,2016-07-26 02:35:00,
2016-07-26 04:40:00,67.4,64.7,29.98,NNW,336,0.0,0.0,91,0.11,,,0.11,0,Wunderground v.1.15,2016-07-26 02:40:00,
2016-07-26 04:50:00,67.3,64.9,29.98,West,281,0.0,0.0,92,0.07,,,0.12,0,Wunderground v.1.15,2016-07-26 02:50:00,
2016-07-26 05:00:00,67.2,64.8,29.98,NNW,327,0.0,0.0,92,0.05,,,0.12,0,Wunderground v.1.15,2016-07-26 03:00:00,
2016-07-26 05:05:00,67.1,64.7,29.97,NNW,329,0.0,0.0,92,0.04,,,0.12,0,Wunderground v.1.15,2016-07-26 03:05:00,
2016-07-26 05:10:00,67.0,64.9,29.97,NW,325,0.0,0.0,93,0.00,,,0.13,0,Wunderground v.1.15,2016-07-26 03:10:00,
2016-07-26 05:15:00,66.9,64.8,29.97,NW,304,0.0,0.0,93,0.00,,,0.13,0,Wunderground v.1.15,2016-07-26 03:15:00,
2016-07-26 05:20:00,66.9,64.8,29.97,NW,311,0.0,0.0,93,0.00,,,0.13,0,Wunderground v.1.15,2016-07-26 03:20:00,
2016-07-26 05:25:00,66.9,64.8,29.96,NNW,328,0.0,0.0,93,0.00,,,0.13,0,Wunderground v.1.15,2016-07-26 03:25:00,
2016-07-26 05:30:00,66.8,64.7,29.96,NW,323,0.0,0.0,93,0.00,,,0.13,0,Wunderground v.1.15,2016-07-26 03:30:00,
2016-07-26 05:35:00,66.8,65.0,29.96,NW,321,0.0,0.0,94,0.00,,,0.13,0,Wunderground v.1.15,2016-07-26 03:35:00,
2016-07-26 05:40:00,66.9,65.1,29.96,NW,320,0.0,0.0,94,0.00,,,0.13,0,Wunderground v.1.15,2016-07-26 03:40:00,
2016-07-26 05:45:00,67.0,65.2,29.96,NW,319,0.0,0.0,94,0.00,,,0.13,0,Wunderground v.1.15,2016-07-26 03:45:00,
2016-07-26 05:50:00,67.1,65.3,29.96,NNW,340,0.0,0.0,94,0.00,,,0.13,0,Wunderground v.1.15,2016-07-26 03:50:00,